Time;durP1;ratioP1;P1;durP2;ratioP2;P2;SDS_P1;SDS_P2;PMS_P1;PMS_P2;Temp;Humidity;BMP_temperature;BMP_pressure;BME280_temperature;BME280_humidity;BME280_pressure;Samples;Min_cycle;Max_cycle;Signal;HPM_P1;HPM_P2
2023/04/26 00:01:31;;;;;;;;;10.00;9.00;;;;;6.80;79.76;97865.63;4958950;28;101604;-73
2023/04/26 00:04:11;;;;;;;;;9.75;6.00;;;;;6.72;78.75;97874.66;4967627;28;101742;-74
2023/04/26 00:06:59;;;;;;;;;10.00;9.00;;;;;6.64;78.86;97847.97;4966972;28;106746;-72
2023/04/26 00:09:52;;;;;;;;;9.50;9.00;;;;;6.75;79.18;97870.78;4959925;28;101741;-73
2023/04/26 00:12:40;;;;;;;;;12.00;8.75;;;;;6.72;78.07;97865.78;4970673;28;101399;-73
2023/04/26 00:15:15;;;;;;;;;7.50;7.25;;;;;6.73;78.30;97878.19;4969198;27;101884;-73
2023/04/26 00:17:46;;;;;;;;;10.75;10.00;;;;;6.66;78.96;97880.00;4964258;28;102460;-73
2023/04/26 00:20:13;;;;;;;;;9.50;8.50;;;;;6.66;79.19;97874.63;4958473;28;101745;-73
2023/04/26 00:22:40;;;;;;;;;9.25;8.25;;;;;6.63;80.08;97877.69;4961217;28;101921;-73
2023/04/26 00:25:07;;;;;;;;;14.00;11.00;;;;;6.56;79.58;97876.81;4973277;28;101428;-73
2023/04/26 00:27:34;;;;;;;;;8.75;7.25;;;;;6.60;79.98;97878.91;4968301;28;103515;-73
2023/04/26 00:30:02;;;;;;;;;8.50;8.25;;;;;6.56;80.58;97883.03;4971649;28;101737;-72
2023/04/26 00:32:30;;;;;;;;;9.00;8.75;;;;;6.60;80.42;97878.09;4961712;28;102066;-72
2023/04/26 00:34:57;;;;;;;;;12.00;9.00;;;;;6.47;79.52;97888.72;4964320;28;101992;-73
2023/04/26 00:37:24;;;;;;;;;10.00;8.50;;;;;6.46;79.24;97884.34;4962706;28;103319;-73
2023/04/26 00:39:51;;;;;;;;;11.25;9.00;;;;;6.36;78.17;97876.63;4957101;28;106144;-73
2023/04/26 00:42:18;;;;;;;;;8.00;8.00;;;;;6.35;78.27;97884.88;4965350;28;101658;-73
2023/04/26 00:44:45;;;;;;;;;8.00;7.00;;;;;5.98;77.22;97826.91;4959487;28;101891;-73
2023/04/26 00:47:12;;;;;;;;;8.00;7.00;;;;;6.24;76.16;97884.38;4968605;28;103299;-73
2023/04/26 00:49:39;;;;;;;;;10.00;8.00;;;;;6.22;76.02;97878.34;4957221;28;101726;-72
2023/04/26 00:52:07;;;;;;;;;11.50;8.00;;;;;6.16;75.89;97876.44;4958418;28;103148;-74
2023/04/26 00:54:34;;;;;;;;;8.75;7.00;;;;;6.11;75.57;97878.88;4967195;27;101877;-73
2023/04/26 00:57:01;;;;;;;;;8.75;8.00;;;;;6.04;76.17;97880.63;4962108;27;103323;-74
2023/04/26 00:59:28;;;;;;;;;7.50;6.50;;;;;6.10;76.43;97887.94;4966164;28;101546;-74
2023/04/26 01:01:56;;;;;;;;;10.50;8.50;;;;;5.96;76.50;97890.66;4966535;28;101580;-73
2023/04/26 01:04:36;;;;;;;;;10.00;7.00;;;;;5.93;76.44;97896.41;4961432;27;101588;-73
2023/04/26 01:07:18;;;;;;;;;6.00;6.00;;;;;5.65;77.39;97839.91;4951757;28;102753;-73
2023/04/26 01:10:05;;;;;;;;;12.25;8.00;;;;;5.82;77.77;97892.31;4969357;28;102043;-73
2023/04/26 01:12:56;;;;;;;;;8.75;7.50;;;;;5.73;77.97;97896.13;4962979;28;101611;-73
2023/04/26 01:15:49;;;;;;;;;8.50;8.00;;;;;5.64;78.23;97892.72;4959399;28;102007;-72
2023/04/26 01:18:26;;;;;;;;;9.25;8.25;;;;;5.65;78.68;97902.44;4952735;28;106832;-73
2023/04/26 01:20:55;;;;;;;;;7.00;7.00;;;;;5.58;78.42;97898.03;4959511;28;101702;-72
2023/04/26 01:23:22;;;;;;;;;9.25;8.00;;;;;5.55;77.75;97893.00;4956686;28;101632;-71
2023/04/26 01:25:49;;;;;;;;;8.75;7.50;;;;;5.54;77.70;97908.25;4971213;27;101888;-72
2023/04/26 01:28:16;;;;;;;;;7.00;7.00;;;;;5.54;77.56;97902.09;4966980;27;103312;-73
2023/04/26 01:30:43;;;;;;;;;10.00;8.00;;;;;5.48;77.72;97908.19;4961802;28;101947;-73
2023/04/26 01:33:10;;;;;;;;;7.00;7.00;;;;;5.45;74.59;97904.00;4962764;28;101767;-72
2023/04/26 01:35:37;;;;;;;;;7.50;7.00;;;;;5.41;75.13;97902.72;4967730;28;101852;-73
2023/04/26 01:38:04;;;;;;;;;7.00;7.00;;;;;5.24;75.95;97891.38;4965140;28;104011;-71
2023/04/26 01:40:31;;;;;;;;;9.00;7.00;;;;;5.29;75.92;97909.56;4956198;28;101591;-73
2023/04/26 01:42:58;;;;;;;;;8.25;6.75;;;;;5.24;75.58;97912.81;4962134;28;101916;-73
2023/04/26 01:45:25;;;;;;;;;7.00;6.25;;;;;5.18;76.09;97918.09;4954743;28;101972;-73
2023/04/26 01:47:52;;;;;;;;;6.75;6.75;;;;;5.10;75.67;97908.25;4965619;28;103356;-73
2023/04/26 01:50:19;;;;;;;;;6.25;6.00;;;;;5.06;75.83;97916.84;4968472;28;101666;-73
2023/04/26 01:52:46;;;;;;;;;8.00;6.50;;;;;5.08;76.10;97918.34;4958685;28;101377;-73
2023/04/26 01:55:13;;;;;;;;;7.00;7.00;;;;;5.01;76.75;97928.13;4968190;28;101847;-73
2023/04/26 01:57:40;;;;;;;;;9.75;7.50;;;;;4.95;75.91;97928.88;4962320;28;103370;-74
2023/04/26 02:00:08;;;;;;;;;5.75;4.50;;;;;4.90;76.03;97925.91;4955260;28;101938;-73
2023/04/26 02:02:35;;;;;;;;;9.00;6.50;;;;;4.83;75.35;97928.47;4950675;28;101524;-73
2023/04/26 02:05:02;;;;;;;;;6.00;6.00;;;;;4.81;75.28;97932.34;4971562;28;101913;-72
2023/04/26 02:07:29;;;;;;;;;6.50;6.50;;;;;4.76;75.11;97924.84;4969339;28;102515;-72
2023/04/26 02:09:56;;;;;;;;;8.00;7.00;;;;;4.71;76.13;97921.88;4956538;28;101504;-73
2023/04/26 02:12:23;;;;;;;;;7.00;7.00;;;;;4.67;75.39;97925.09;4962890;28;101336;-72
2023/04/26 02:14:50;;;;;;;;;7.00;6.50;;;;;4.64;76.08;97933.50;4967333;28;101426;-73
2023/04/26 02:17:17;;;;;;;;;6.75;6.00;;;;;4.61;76.16;97925.81;4967738;28;108057;-71
2023/04/26 02:19:45;;;;;;;;;12.00;6.00;;;;;4.56;75.73;97933.53;4967480;28;101782;-72
2023/04/26 02:22:12;;;;;;;;;6.75;6.00;;;;;4.55;76.58;97942.59;4967266;28;101896;-72
2023/04/26 02:24:39;;;;;;;;;6.00;5.00;;;;;4.48;77.08;97932.59;4964000;28;102229;-72
2023/04/26 02:27:06;;;;;;;;;7.00;7.00;;;;;4.45;76.65;97932.13;4963697;28;103166;-73
2023/04/26 02:29:35;;;;;;;;;8.00;7.00;;;;;4.40;77.71;97929.16;4969554;28;102596;-73
2023/04/26 02:32:11;;;;;;;;;6.50;6.00;;;;;4.39;77.46;97935.53;4967134;28;101819;-74
2023/04/26 02:34:38;;;;;;;;;8.25;6.75;;;;;4.17;77.30;97912.25;4962546;28;101596;-73
2023/04/26 02:37:06;;;;;;;;;8.00;7.00;;;;;4.31;77.38;97941.78;4962984;28;103481;-73
2023/04/26 02:39:33;;;;;;;;;8.50;6.00;;;;;4.26;77.18;97948.66;4966230;28;101954;-72
2023/04/26 02:42:00;;;;;;;;;8.50;7.00;;;;;4.30;77.05;97948.13;4966414;28;101999;-72
2023/04/26 02:44:30;;;;;;;;;11.00;7.00;;;;;4.19;77.83;97943.16;4969458;28;101927;-72
2023/04/26 02:46:57;;;;;;;;;9.25;7.00;;;;;4.16;78.20;97938.19;4967013;27;103346;-73
2023/04/26 02:49:24;;;;;;;;;6.00;6.00;;;;;4.16;77.67;97943.53;4970284;28;101607;-71
2023/04/26 02:51:51;;;;;;;;;7.50;6.50;;;;;4.09;78.02;97942.59;4971167;27;101791;-73
2023/04/26 02:54:18;;;;;;;;;5.50;5.50;;;;;3.92;78.32;97914.25;4968862;28;101744;-73
2023/04/26 02:56:45;;;;;;;;;8.00;6.75;;;;;4.10;78.73;97948.78;4969565;28;103671;-72
2023/04/26 02:59:12;;;;;;;;;9.75;6.50;;;;;4.08;77.90;97948.94;4969453;28;101976;-74
2023/04/26 03:01:39;;;;;;;;;8.00;7.25;;;;;3.99;78.22;97953.50;4960858;28;101689;-73
2023/04/26 03:04:06;;;;;;;;;8.50;8.50;;;;;3.97;78.51;97954.66;4966455;28;102754;-73
2023/04/26 03:06:34;;;;;;;;;10.75;7.75;;;;;3.80;78.44;97929.03;4969248;28;103353;-73
2023/04/26 03:09:01;;;;;;;;;8.00;5.00;;;;;3.94;78.61;97950.53;4967486;28;101626;-73
2023/04/26 03:11:28;;;;;;;;;9.50;6.00;;;;;3.95;77.93;97946.00;4967677;28;101649;-73
2023/04/26 03:13:55;;;;;;;;;6.00;5.75;;;;;3.90;78.63;97945.69;4966959;28;101666;-72
2023/04/26 03:16:22;;;;;;;;;9.75;9.00;;;;;3.84;79.14;97952.56;4970153;28;103335;-73
2023/04/26 03:18:49;;;;;;;;;7.50;7.00;;;;;3.79;78.99;97951.41;4968454;28;101557;-73
2023/04/26 03:21:17;;;;;;;;;6.00;5.75;;;;;3.55;79.27;97918.47;4968026;28;101490;-72
2023/04/26 03:23:44;;;;;;;;;5.25;5.25;;;;;3.78;79.21;97955.13;4967031;28;102786;-74
2023/04/26 03:26:11;;;;;;;;;10.00;6.50;;;;;3.77;79.17;97954.28;4962686;28;103304;-73
2023/04/26 03:28:38;;;;;;;;;4.00;3.00;;;;;3.78;79.51;97955.94;4968225;28;101664;-73
2023/04/26 03:31:05;;;;;;;;;6.25;5.25;;;;;3.79;78.64;97962.09;4966087;28;101298;-73
2023/04/26 03:33:32;;;;;;;;;6.75;5.00;;;;;3.78;79.65;97971.16;4969624;28;101641;-72
2023/04/26 03:35:59;;;;;;;;;10.75;6.50;;;;;3.72;79.38;97971.84;4963027;28;103356;-72
2023/04/26 03:38:26;;;;;;;;;7.25;6.25;;;;;3.72;80.16;97978.03;4959568;28;101968;-74
2023/04/26 03:40:53;;;;;;;;;7.75;6.75;;;;;3.69;79.59;97973.03;4844127;28;101830;-73
2023/04/26 03:43:19;;;;;;;;;10.75;9.50;;;;;3.69;79.91;97983.72;4975564;27;101683;-74
2023/04/26 03:45:48;;;;;;;;;8.00;7.00;;;;;3.70;79.71;97987.22;4958879;27;103466;-73
2023/04/26 03:48:15;;;;;;;;;10.00;9.75;;;;;3.72;80.06;97987.88;4984346;28;102172;-74
2023/04/26 03:50:44;;;;;;;;;15.50;11.25;;;;;3.72;80.56;97979.88;4960011;28;101671;-72
2023/04/26 03:53:12;;;;;;;;;12.00;12.00;;;;;3.64;81.71;97979.91;4962907;27;101585;-73
2023/04/26 03:55:39;;;;;;;;;32.25;21.00;;;;;3.64;81.35;97995.94;4966450;28;103385;-74
2023/04/26 03:58:06;;;;;;;;;26.00;20.00;;;;;3.59;82.60;98008.00;4986455;28;102080;-73
2023/04/26 04:00:37;;;;;;;;;17.25;14.50;;;;;3.56;82.75;98002.97;4968718;28;101631;-73
2023/04/26 04:03:05;;;;;;;;;23.00;21.25;;;;;3.59;83.05;98007.16;4973280;28;101621;-73
2023/04/26 04:05:32;;;;;;;;;16.50;15.50;;;;;3.65;82.99;98016.34;4962730;28;103726;-72
2023/04/26 04:08:00;;;;;;;;;14.75;12.00;;;;;3.75;83.17;98008.91;4998765;28;101792;-74
2023/04/26 04:10:28;;;;;;;;;14.25;13.00;;;;;3.79;81.95;98016.41;4969110;28;101564;-73
2023/04/26 04:12:55;;;;;;;;;11.25;10.75;;;;;3.89;82.15;98026.91;4969676;28;101810;-72
2023/04/26 04:15:22;;;;;;;;;14.75;14.75;;;;;3.74;82.44;98016.09;4966365;28;103626;-72
2023/04/26 04:17:49;;;;;;;;;20.25;17.00;;;;;3.55;83.56;98016.53;4959040;28;101555;-73
2023/04/26 04:20:16;;;;;;;;;19.00;14.25;;;;;3.81;83.43;98029.63;4970303;28;101630;-73
2023/04/26 04:22:43;;;;;;;;;25.75;15.50;;;;;3.75;82.44;98024.97;4968283;28;102219;-73
2023/04/26 04:25:10;;;;;;;;;19.00;16.00;;;;;3.77;81.97;98023.81;4960115;28;103332;-74
2023/04/26 04:27:37;;;;;;;;;12.25;12.00;;;;;3.66;82.92;98007.28;4962069;28;101770;-72
2023/04/26 04:30:06;;;;;;;;;16.50;13.75;;;;;3.79;82.41;98034.31;4971334;28;101365;-73
2023/04/26 04:32:34;;;;;;;;;18.75;15.25;;;;;3.63;83.36;98015.66;4966888;28;103284;-74
2023/04/26 04:35:01;;;;;;;;;18.25;15.50;;;;;3.86;82.51;98035.31;4964864;28;103322;-73
2023/04/26 04:37:28;;;;;;;;;16.75;14.00;;;;;3.85;82.27;98047.00;4966575;28;101613;-72
2023/04/26 04:39:55;;;;;;;;;17.50;14.25;;;;;3.82;83.27;98042.00;4965983;28;101632;-75
2023/04/26 04:42:22;;;;;;;;;21.50;18.25;;;;;3.81;83.17;98045.66;4965558;28;101759;-74
2023/04/26 04:44:49;;;;;;;;;22.00;16.75;;;;;3.74;82.59;98042.84;4971915;28;107747;-73
2023/04/26 04:47:16;;;;;;;;;15.50;15.00;;;;;3.81;82.17;98053.69;4968496;28;101588;-72
2023/04/26 04:49:43;;;;;;;;;19.25;15.75;;;;;3.94;81.45;98054.81;4963746;28;101565;-73
2023/04/26 04:52:10;;;;;;;;;14.75;13.50;;;;;3.98;81.63;98053.47;4968096;28;101434;-75
2023/04/26 04:54:37;;;;;;;;;14.75;13.50;;;;;3.92;81.64;98054.16;4966839;28;103344;-74
2023/04/26 04:57:05;;;;;;;;;13.50;12.50;;;;;3.98;81.18;98052.63;4968817;28;101909;-72
2023/04/26 04:59:32;;;;;;;;;16.75;14.75;;;;;4.02;80.81;98032.56;4956682;28;102197;-74
2023/04/26 05:01:59;;;;;;;;;19.50;15.00;;;;;4.13;80.97;98056.25;4956409;28;101829;-73
2023/04/26 05:04:26;;;;;;;;;13.75;10.75;;;;;4.23;79.32;98056.88;4981995;28;103681;-72
2023/04/26 05:06:53;;;;;;;;;14.75;12.00;;;;;4.33;78.36;98060.16;4971393;28;101470;-74
2023/04/26 05:09:20;;;;;;;;;12.25;11.25;;;;;4.60;78.31;98050.81;4984208;28;102962;-73
2023/04/26 05:11:47;;;;;;;;;13.00;11.75;;;;;4.87;76.28;98063.69;4969898;28;101880;-74
2023/04/26 05:14:14;;;;;;;;;8.25;8.00;;;;;5.04;75.52;98067.09;4967109;28;103540;-76
2023/04/26 05:16:41;;;;;;;;;12.25;9.75;;;;;4.92;75.31;98073.84;4962446;28;101785;-75
2023/04/26 05:19:09;;;;;;;;;8.50;7.50;;;;;5.09;74.38;98072.72;4964588;28;101561;-74
2023/04/26 05:21:35;;;;;;;;;12.00;10.25;;;;;5.30;73.61;98072.91;4956527;28;106851;-76
2023/04/26 05:24:03;;;;;;;;;8.25;8.25;;;;;5.42;72.20;98080.50;4963944;28;103388;-77
2023/04/26 05:26:30;;;;;;;;;3.75;2.25;;;;;5.57;73.44;98068.81;4960374;28;101787;-75
2023/04/26 05:28:57;;;;;;;;;8.75;8.00;;;;;5.90;71.96;98071.19;4963799;28;101995;-74
2023/04/26 05:31:23;;;;;;;;;8.25;7.50;;;;;6.18;69.75;98078.38;4966120;28;101862;-76
2023/04/26 05:33:50;;;;;;;;;5.00;5.00;;;;;5.94;70.15;98072.47;4959029;28;103731;-77
2023/04/26 05:36:18;;;;;;;;;9.50;8.00;;;;;6.04;70.29;98081.91;4956184;28;101605;-76
2023/04/26 05:38:45;;;;;;;;;11.00;9.00;;;;;6.25;69.11;98071.25;4965829;28;101575;-76
2023/04/26 05:41:12;;;;;;;;;9.00;8.00;;;;;6.42;68.74;98074.56;4956423;28;102139;-77
2023/04/26 05:43:39;;;;;;;;;8.75;7.25;;;;;6.36;68.08;98066.41;4968183;28;103385;-77
2023/04/26 05:46:06;;;;;;;;;3.00;2.00;;;;;6.30;68.37;98064.50;4961352;28;101666;-76
2023/04/26 05:48:33;;;;;;;;;5.75;5.75;;;;;6.25;68.11;98073.94;4955826;28;101553;-77
2023/04/26 05:51:00;;;;;;;;;11.25;7.50;;;;;5.93;69.10;98070.81;4971814;28;101842;-77
2023/04/26 05:53:27;;;;;;;;;6.75;5.00;;;;;6.19;67.55;98074.69;4965875;28;103509;-76
2023/04/26 05:55:54;;;;;;;;;6.00;4.75;;;;;6.81;67.46;98078.72;4968359;28;101795;-76
2023/04/26 05:58:21;;;;;;;;;8.75;6.00;;;;;6.24;67.26;98074.97;4960248;28;106972;-78
2023/04/26 06:00:48;;;;;;;;;7.00;6.00;;;;;6.37;67.16;98082.34;4960484;28;101703;-75
2023/04/26 06:03:15;;;;;;;;;5.75;5.00;;;;;6.53;66.67;98075.94;4956011;28;103788;-76
2023/04/26 06:05:42;;;;;;;;;11.25;6.00;;;;;6.61;66.35;98089.25;4969191;28;101604;-77
2023/04/26 06:08:10;;;;;;;;;6.00;5.50;;;;;7.36;64.99;98095.00;4963946;28;101812;-76
2023/04/26 06:10:36;;;;;;;;;6.75;5.25;;;;;6.96;64.43;98083.03;4959919;28;102041;-78
2023/04/26 06:13:04;;;;;;;;;6.00;6.00;;;;;6.86;64.20;98095.94;4965584;28;103732;-75
2023/04/26 06:15:30;;;;;;;;;8.25;4.00;;;;;7.31;62.91;98083.16;4969856;28;101823;-76
2023/04/26 06:17:57;;;;;;;;;7.00;6.00;;;;;6.76;63.57;98098.09;4961224;28;101483;-77
2023/04/26 06:20:25;;;;;;;;;5.25;5.00;;;;;7.20;61.98;98105.22;4949878;28;101934;-77
2023/04/26 06:22:52;;;;;;;;;4.00;3.00;;;;;6.90;63.38;98102.59;4958951;28;103457;-77
2023/04/26 06:25:19;;;;;;;;;5.00;4.25;;;;;7.14;62.90;98096.88;4944469;28;101673;-76
2023/04/26 06:27:46;;;;;;;;;5.50;3.75;;;;;7.70;63.35;98091.56;4955824;28;101647;-75
2023/04/26 06:30:13;;;;;;;;;6.50;3.50;;;;;7.52;60.58;98094.72;4964710;28;102001;-77
2023/04/26 06:32:41;;;;;;;;;4.25;4.00;;;;;6.95;61.52;98094.81;4963019;28;103340;-77
2023/04/26 06:35:08;;;;;;;;;5.00;5.00;;;;;6.63;62.71;98055.81;4967618;28;101639;-75
2023/04/26 06:37:37;;;;;;;;;4.00;3.00;;;;;7.01;60.39;98067.19;4962412;28;101607;-76
2023/04/26 06:40:04;;;;;;;;;7.25;4.75;;;;;7.09;62.84;98085.88;4966450;28;102028;-77
2023/04/26 06:42:31;;;;;;;;;3.00;3.00;;;;;7.09;59.86;98099.31;4964867;28;103785;-76
2023/04/26 06:44:58;;;;;;;;;3.25;3.00;;;;;6.81;62.75;98100.22;4965971;28;101428;-76
2023/04/26 06:47:25;;;;;;;;;4.75;3.75;;;;;7.04;64.08;98090.97;4964005;28;101579;-75
2023/04/26 06:49:52;;;;;;;;;4.75;4.00;;;;;7.46;62.76;98100.06;4962630;28;101569;-76
2023/04/26 06:52:19;;;;;;;;;3.75;2.75;;;;;7.25;61.91;98092.03;4964226;28;103259;-76
2023/04/26 06:54:47;;;;;;;;;4.00;3.00;;;;;7.36;61.49;98095.00;4954961;28;102083;-77
2023/04/26 06:57:23;;;;;;;;;3.00;3.00;;;;;7.66;59.05;98089.47;4963032;28;102291;-76
2023/04/26 06:59:50;;;;;;;;;2.75;2.75;;;;;7.32;60.05;98117.09;4970460;28;102438;-77
2023/04/26 07:02:17;;;;;;;;;4.50;3.00;;;;;7.14;61.18;98090.66;4961037;28;105339;-76
2023/04/26 07:04:44;;;;;;;;;1.50;1.50;;;;;7.52;62.11;98097.41;4957570;28;101898;-75
2023/04/26 07:07:13;;;;;;;;;4.75;3.75;;;;;7.28;60.54;98097.84;4958732;28;101961;-76
2023/04/26 07:09:40;;;;;;;;;4.25;3.00;;;;;6.96;61.89;98107.22;4951739;28;101996;-75
2023/04/26 07:12:09;;;;;;;;;2.50;2.00;;;;;6.89;61.19;98110.88;4965481;28;108263;-76
2023/04/26 07:14:39;;;;;;;;;3.50;3.50;;;;;6.79;61.69;98108.50;4963562;28;101735;-76
2023/04/26 07:17:06;;;;;;;;;2.50;2.50;;;;;7.08;61.67;98094.09;4956411;28;101386;-77
2023/04/26 07:19:33;;;;;;;;;1.00;1.00;;;;;7.11;62.44;98102.63;4964232;28;103319;-76
2023/04/26 07:22:00;;;;;;;;;4.50;3.00;;;;;7.05;61.71;98098.03;4965457;28;103315;-76
2023/04/26 07:24:27;;;;;;;;;4.50;4.00;;;;;7.04;60.45;98104.41;4964205;28;102297;-76
2023/04/26 07:26:55;;;;;;;;;5.00;4.00;;;;;7.45;62.23;98109.16;4962879;27;101574;-75
2023/04/26 07:29:22;;;;;;;;;4.50;3.50;;;;;7.41;61.56;98099.81;4950537;28;105744;-76
2023/04/26 07:31:49;;;;;;;;;4.25;4.25;;;;;6.99;61.29;98096.09;4956867;28;103629;-75
2023/04/26 07:34:16;;;;;;;;;3.75;3.50;;;;;7.06;62.80;98117.69;4971110;28;101876;-76
2023/04/26 07:36:43;;;;;;;;;5.00;4.50;;;;;6.86;62.55;98117.44;4963959;28;101603;-76
2023/04/26 07:39:10;;;;;;;;;4.25;4.25;;;;;6.67;62.61;98115.34;4972132;28;101554;-76
2023/04/26 07:41:37;;;;;;;;;4.50;4.50;;;;;6.89;62.30;98122.44;4962854;28;103324;-77
2023/04/26 07:44:06;;;;;;;;;5.00;4.00;;;;;6.62;61.18;98112.38;4968329;28;102412;-76
2023/04/26 07:46:33;;;;;;;;;3.25;3.00;;;;;6.69;62.20;98105.25;4965957;28;101457;-76
2023/04/26 07:49:00;;;;;;;;;6.50;5.00;;;;;7.02;62.98;98119.91;4963378;28;101635;-75
2023/04/26 07:51:27;;;;;;;;;5.00;4.75;;;;;7.48;61.43;98128.44;4954374;28;103271;-76
2023/04/26 07:53:54;;;;;;;;;3.75;3.75;;;;;7.40;61.14;98116.97;4962612;28;101612;-77
2023/04/26 07:56:25;;;;;;;;;7.25;4.75;;;;;7.28;61.46;98103.22;4954904;28;101323;-76
2023/04/26 07:58:52;;;;;;;;;7.50;6.50;;;;;6.95;61.65;98123.53;4968171;28;101562;-77
2023/04/26 08:01:19;;;;;;;;;10.75;9.75;;;;;6.50;62.83;98130.03;4959263;28;102685;-76
2023/04/26 08:03:47;;;;;;;;;8.50;7.50;;;;;6.64;63.01;98129.16;4958307;28;101644;-77
2023/04/26 08:06:15;;;;;;;;;7.25;7.25;;;;;6.80;62.99;98130.81;4964520;28;108199;-76
2023/04/26 08:08:48;;;;;;;;;5.00;4.00;;;;;7.05;63.40;98124.91;4968821;28;101885;-77
2023/04/26 08:11:15;;;;;;;;;11.50;10.00;;;;;7.64;59.59;98132.72;4962859;28;103544;-76
2023/04/26 08:13:42;;;;;;;;;10.50;8.25;;;;;8.21;61.25;98126.28;4972218;27;102075;-77
2023/04/26 08:16:10;;;;;;;;;9.50;9.25;;;;;8.12;58.30;98133.69;4970744;28;101627;-76
2023/04/26 08:18:36;;;;;;;;;7.00;6.00;;;;;7.61;59.30;98127.69;4968685;28;101605;-77
2023/04/26 08:21:03;;;;;;;;;6.75;5.50;;;;;7.45;60.52;98142.28;4965778;27;103464;-77
2023/04/26 08:23:35;;;;;;;;;6.50;4.00;;;;;7.21;61.40;98125.66;4958471;28;102057;-76
2023/04/26 08:26:02;;;;;;;;;8.50;8.00;;;;;7.42;60.65;98133.75;4958842;28;101664;-77
2023/04/26 08:28:29;;;;;;;;;6.75;6.50;;;;;7.62;60.78;98132.06;4968633;28;102164;-76
2023/04/26 08:30:57;;;;;;;;;6.50;4.25;;;;;7.45;58.73;98142.28;4968114;28;103452;-76
2023/04/26 08:33:24;;;;;;;;;8.25;5.00;;;;;7.31;57.27;98132.41;4965119;28;101897;-77
2023/04/26 08:35:51;;;;;;;;;7.25;6.00;;;;;7.36;59.45;98145.28;4982948;28;102585;-75
2023/04/26 08:38:18;;;;;;;;;7.00;7.00;;;;;7.05;59.35;98140.19;4968150;28;101691;-78
2023/04/26 08:40:46;;;;;;;;;6.50;5.50;;;;;6.76;61.72;98142.94;4962457;28;104300;-77
2023/04/26 08:43:16;;;;;;;;;8.00;6.25;;;;;6.60;61.85;98152.06;4964474;27;101847;-75
2023/04/26 08:45:45;;;;;;;;;8.50;7.75;;;;;6.59;60.19;98150.38;4961027;28;101795;-76
2023/04/26 08:48:16;;;;;;;;;6.00;5.00;;;;;6.68;58.85;98149.25;4963022;28;102013;-75
2023/04/26 08:50:47;;;;;;;;;7.00;7.00;;;;;7.30;59.38;98143.34;4954545;27;103539;-76
2023/04/26 08:53:16;;;;;;;;;5.50;4.00;;;;;7.37;56.50;98144.25;4958981;28;102021;-75
2023/04/26 08:55:48;;;;;;;;;4.00;4.00;;;;;7.89;56.63;98133.94;4959840;28;103076;-77
2023/04/26 08:58:20;;;;;;;;;4.75;4.00;;;;;7.81;56.94;98136.78;4964301;28;101621;-76
2023/04/26 09:00:49;;;;;;;;;4.00;4.00;;;;;7.38;57.02;98140.56;4965489;28;103373;-75
2023/04/26 09:03:16;;;;;;;;;5.50;5.50;;;;;7.18;57.56;98146.56;4957311;28;101690;-75
2023/04/26 09:05:44;;;;;;;;;3.00;3.00;;;;;7.29;56.24;98139.00;4966639;28;101649;-76
2023/04/26 09:08:19;;;;;;;;;4.75;4.50;;;;;7.38;55.59;98140.56;4967162;27;101817;-76
2023/04/26 09:10:46;;;;;;;;;5.25;5.25;;;;;7.02;55.09;98141.44;4951291;28;103401;-76
2023/04/26 09:13:13;;;;;;;;;7.50;6.50;;;;;6.92;55.43;98148.94;4961780;28;102068;-77
2023/04/26 09:15:40;;;;;;;;;5.00;5.00;;;;;7.00;56.38;98146.16;4951828;28;101519;-75
2023/04/26 09:18:18;;;;;;;;;6.50;5.00;;;;;6.80;55.64;98144.25;4967702;28;101855;-74
2023/04/26 09:21:00;;;;;;;;;7.00;4.75;;;;;7.00;54.54;98148.00;4958828;27;107852;-75
2023/04/26 09:23:27;;;;;;;;;7.75;7.25;;;;;7.50;56.20;98155.16;4965356;28;101476;-77
2023/04/26 09:25:53;;;;;;;;;5.00;5.00;;;;;7.26;52.84;98155.50;4970198;28;102129;-76
2023/04/26 09:28:22;;;;;;;;;4.25;4.00;;;;;7.19;55.52;98152.75;4970992;28;101821;-75
2023/04/26 09:30:49;;;;;;;;;4.00;3.00;;;;;6.90;54.18;98164.41;4961786;28;103468;-76
2023/04/26 09:33:16;;;;;;;;;2.75;2.75;;;;;6.83;52.91;98157.31;4959850;28;101662;-75
2023/04/26 09:35:44;;;;;;;;;3.25;3.25;;;;;6.96;55.80;98160.97;4966391;28;101733;-75
2023/04/26 09:38:17;;;;;;;;;4.50;4.00;;;;;6.90;56.42;98159.03;4970390;28;101850;-75
2023/04/26 09:40:46;;;;;;;;;3.50;3.00;;;;;7.36;54.54;98156.03;4965120;28;103481;-76
2023/04/26 09:43:20;;;;;;;;;4.50;3.75;;;;;7.86;55.11;98155.88;4961770;28;101621;-75
2023/04/26 09:45:57;;;;;;;;;5.00;4.00;;;;;8.23;54.84;98146.63;4965898;28;101574;-75
2023/04/26 09:48:29;;;;;;;;;4.75;4.75;;;;;7.70;53.19;98153.44;4962553;28;101512;-75
2023/04/26 09:51:03;;;;;;;;;4.75;4.00;;;;;7.27;53.85;98162.56;4966386;28;103379;-75
2023/04/26 09:53:38;;;;;;;;;4.00;4.00;;;;;7.10;56.15;98157.44;4957598;28;101692;-76
2023/04/26 09:56:10;;;;;;;;;3.25;3.25;;;;;7.00;56.50;98164.97;4960413;28;101864;-76
2023/04/26 09:58:57;;;;;;;;;4.00;3.00;;;;;6.85;52.29;98142.66;4962474;28;102007;-75
2023/04/26 10:01:28;;;;;;;;;1.00;1.00;;;;;7.15;52.09;98157.69;4963692;28;107966;-77
2023/04/26 10:03:56;;;;;;;;;3.75;3.75;;;;;7.68;52.08;98158.22;4965844;28;101751;-77
2023/04/26 10:06:24;;;;;;;;;3.00;3.00;;;;;7.87;50.24;98141.41;4953766;28;101931;-76
2023/04/26 10:08:51;;;;;;;;;5.00;5.00;;;;;8.50;48.80;98142.25;4949988;28;101513;-73
2023/04/26 10:11:20;;;;;;;;;2.00;2.00;;;;;8.44;46.15;98143.06;4959908;28;103492;-76
2023/04/26 10:13:50;;;;;;;;;2.00;2.00;;;;;8.93;47.46;98135.63;4965784;28;101970;-77
2023/04/26 10:16:18;;;;;;;;;4.00;3.50;;;;;9.11;44.41;98145.84;4958034;28;101948;-78
2023/04/26 10:18:45;;;;;;;;;2.00;2.00;;;;;8.46;46.33;98149.91;4959917;28;101957;-72
2023/04/26 10:21:18;;;;;;;;;2.75;2.00;;;;;8.58;48.88;98158.25;4961898;28;103391;-76
2023/04/26 10:23:47;;;;;;;;;3.50;2.50;;;;;7.95;49.24;98160.09;4962524;27;101923;-74
2023/04/26 10:26:53;;;;;;;;;3.00;3.00;;;;;7.43;52.40;98163.13;4960309;28;101745;-76
2023/04/26 10:29:21;;;;;;;;;2.00;2.00;;;;;7.73;54.26;98165.69;4967418;28;101801;-74
2023/04/26 10:32:01;;;;;;;;;2.00;2.00;;;;;7.87;52.96;98162.94;4963796;28;103343;-74
2023/04/26 10:34:30;;;;;;;;;2.75;2.00;;;;;7.92;55.04;98159.66;4964400;28;101522;-76
2023/04/26 10:37:11;;;;;;;;;3.00;3.00;;;;;8.49;51.05;98151.38;4955139;28;101689;-75
2023/04/26 10:39:40;;;;;;;;;4.00;4.00;;;;;8.92;53.98;98147.41;4960750;28;102433;-74
2023/04/26 10:42:24;;;;;;;;;4.75;3.75;;;;;9.20;51.57;98155.41;4966820;27;103308;-75
2023/04/26 10:44:57;;;;;;;;;3.00;3.00;;;;;9.02;49.23;98140.81;4959512;28;101423;-76
2023/04/26 10:47:27;;;;;;;;;2.25;1.50;;;;;9.05;47.07;98151.22;4967370;28;101602;-74
2023/04/26 10:50:10;;;;;;;;;1.00;1.00;;;;;8.47;44.99;98148.03;4954488;28;106237;-74
2023/04/26 10:53:00;;;;;;;;;2.00;1.00;;;;;7.66;45.29;98106.44;4961277;28;103491;-74
2023/04/26 10:55:42;;;;;;;;;3.25;3.00;;;;;7.87;45.36;98156.72;4954186;28;101891;-75
2023/04/26 10:58:31;;;;;;;;;2.00;2.00;;;;;8.49;47.97;98162.16;4962787;28;102423;-76
2023/04/26 11:01:12;;;;;;;;;3.00;2.25;;;;;8.13;51.49;98166.84;4962730;27;101595;-74
2023/04/26 11:03:44;;;;;;;;;3.00;2.00;;;;;8.01;52.68;98170.06;4963923;28;108042;-74
2023/04/26 11:06:14;;;;;;;;;3.00;3.00;;;;;7.79;53.97;98176.50;4962599;27;101449;-74
2023/04/26 11:08:42;;;;;;;;;3.00;2.75;;;;;7.77;52.48;98170.50;4972834;28;101613;-74
2023/04/26 11:11:12;;;;;;;;;3.50;2.00;;;;;7.44;50.32;98169.34;4962126;28;102075;-75
2023/04/26 11:13:43;;;;;;;;;5.50;4.25;;;;;7.59;52.09;98167.44;4962345;28;110732;-74
2023/04/26 11:16:14;;;;;;;;;5.75;4.25;;;;;7.54;51.78;98151.03;4961632;28;102041;-77
2023/04/26 11:18:46;;;;;;;;;3.00;3.00;;;;;7.92;50.54;98179.34;4963356;28;101529;-77
2023/04/26 11:21:16;;;;;;;;;3.00;2.75;;;;;8.06;47.11;98181.09;4968602;28;101987;-73
2023/04/26 11:23:52;;;;;;;;;1.75;1.00;;;;;8.10;43.44;98178.03;4961449;28;108124;-73
2023/04/26 11:26:20;;;;;;;;;3.50;1.75;;;;;8.17;45.50;98168.13;4957282;28;103074;-75
2023/04/26 11:28:48;;;;;;;;;2.00;1.50;;;;;8.06;45.77;98167.63;4967525;28;102031;-75
2023/04/26 11:31:17;;;;;;;;;1.25;1.25;;;;;8.13;46.24;98169.53;4961317;28;101610;-75
2023/04/26 11:33:45;;;;;;;;;3.25;3.25;;;;;8.30;47.65;98182.53;4950227;28;103553;-75
2023/04/26 11:36:16;;;;;;;;;3.50;3.00;;;;;8.27;47.35;98158.69;4965006;28;101833;-75
2023/04/26 11:38:43;;;;;;;;;6.00;4.25;;;;;8.58;49.23;98155.56;4966394;28;103136;-75
2023/04/26 11:41:10;;;;;;;;;5.50;4.00;;;;;8.82;43.91;98155.06;4961370;28;102294;-74